Time,TemperatureF,DewpointF,PressureIn,WindDirection,WindDirectionDegrees,WindSpeedMPH,WindSpeedGustMPH,Humidity,HourlyPrecipIn,Conditions,Clouds,dailyrainin,SolarRadiationWatts/m^2,SoftwareType,DateUTC
2013-10-28 00:04:00,50.0,42.0,-100.00,NNW,347,4.0,5.0,73,0.00,,,0.00,0.000000,,2013-10-28 04:04:00,
2013-10-28 00:43:00,48.0,43.0,-100.00,North,349,2.0,5.0,83,0.00,,,0.00,0.000000,,2013-10-28 04:43:00,
2013-10-28 00:53:00,48.0,43.0,-100.00,North,349,2.0,5.0,83,0.00,,,0.00,0.000000,,2013-10-28 04:53:00,
2013-10-28 01:04:00,48.0,43.0,-100.00,North,349,2.0,5.0,83,0.00,,,0.00,0.000000,,2013-10-28 05:04:00,
2013-10-28 01:43:00,48.0,44.0,-100.00,NNW,347,5.0,6.0,85,0.00,,,0.00,0.000000,,2013-10-28 05:43:00,
2013-10-28 01:53:00,48.0,44.0,-100.00,NNW,347,5.0,6.0,85,0.00,,,0.00,0.000000,,2013-10-28 05:53:00,
2013-10-28 02:03:00,48.0,44.0,-100.00,NNW,347,5.0,6.0,85,0.00,,,0.00,0.000000,,2013-10-28 06:03:00,
2013-10-28 02:43:00,49.0,44.0,-100.00,North,353,5.0,7.0,84,0.00,,,0.00,0.000000,,2013-10-28 06:43:00,
2013-10-28 02:52:00,49.0,44.0,-100.00,North,353,5.0,7.0,84,0.00,,,0.00,0.000000,,2013-10-28 06:52:00,
2013-10-28 03:02:00,49.0,44.0,-100.00,North,353,5.0,7.0,84,0.00,,,0.00,0.000000,,2013-10-28 07:02:00,
2013-10-28 03:42:00,51.0,46.0,-100.00,NNW,346,5.0,7.0,83,0.00,,,0.00,0.000000,,2013-10-28 07:42:00,
2013-10-28 03:52:00,51.0,46.0,-100.00,NNW,346,5.0,7.0,83,0.00,,,0.00,0.000000,,2013-10-28 07:52:00,
2013-10-28 04:02:00,51.0,46.0,-100.00,NNW,346,5.0,7.0,83,0.00,,,0.00,0.000000,,2013-10-28 08:02:00,
2013-10-28 04:42:00,51.0,46.0,-100.00,NNW,347,4.0,6.0,83,0.00,,,0.00,0.000000,,2013-10-28 08:42:00,
2013-10-28 04:52:00,51.0,46.0,-100.00,NNW,347,4.0,6.0,83,0.00,,,0.00,0.000000,,2013-10-28 08:52:00,
2013-10-28 05:02:00,51.0,46.0,-100.00,NNW,347,4.0,6.0,83,0.00,,,0.00,0.000000,,2013-10-28 09:02:00,
2013-10-28 05:43:00,51.0,47.0,-100.00,North,351,4.0,6.0,87,0.00,,,0.00,0.000000,,2013-10-28 09:43:00,
2013-10-28 05:53:00,51.0,47.0,-100.00,North,351,4.0,6.0,87,0.00,,,0.00,0.000000,,2013-10-28 09:53:00,
2013-10-28 06:03:00,51.0,47.0,-100.00,North,351,4.0,6.0,87,0.00,,,0.00,0.000000,,2013-10-28 10:03:00,
2013-10-28 06:43:00,50.0,47.0,-100.00,North,349,3.0,5.0,88,0.00,,,0.00,0.000000,,2013-10-28 10:43:00,
2013-10-28 06:53:00,50.0,47.0,-100.00,North,349,3.0,5.0,88,0.00,,,0.00,0.000000,,2013-10-28 10:53:00,
2013-10-28 07:03:00,50.0,47.0,-100.00,North,349,3.0,5.0,88,0.00,,,0.00,0.000000,,2013-10-28 11:03:00,
2013-10-28 07:43:00,51.0,48.0,-100.00,NNW,339,3.0,5.0,90,0.00,,,0.00,0.000000,,2013-10-28 11:43:00,
2013-10-28 07:52:00,51.0,48.0,-100.00,NNW,339,3.0,5.0,90,0.00,,,0.00,0.000000,,2013-10-28 11:52:00,
2013-10-28 08:02:00,51.0,48.0,-100.00,NNW,339,3.0,5.0,90,0.00,,,0.00,0.000000,,2013-10-28 12:02:00,
2013-10-28 08:42:00,50.0,48.0,-100.00,North,351,4.0,5.0,92,0.00,,,0.00,0.000000,,2013-10-28 12:42:00,
2013-10-28 08:52:00,50.0,48.0,-100.00,North,351,4.0,5.0,92,0.00,,,0.00,0.000000,,2013-10-28 12:52:00,
2013-10-28 09:01:00,50.0,48.0,-100.00,North,351,4.0,5.0,92,0.00,,,0.00,0.000000,,2013-10-28 13:01:00,
2013-10-28 09:42:00,50.0,49.0,-100.00,North,351,4.0,6.0,96,0.00,,,0.00,8.000000,,2013-10-28 13:42:00,
2013-10-28 09:52:00,50.0,49.0,-100.00,North,351,4.0,6.0,96,0.00,,,0.00,8.000000,,2013-10-28 13:52:00,
2013-10-28 10:02:00,50.0,49.0,-100.00,North,351,4.0,6.0,96,0.00,,,0.00,8.000000,,2013-10-28 14:02:00,
2013-10-28 10:42:00,52.0,51.0,-100.00,NNW,345,3.0,5.0,97,0.00,,,0.00,46.000000,,2013-10-28 14:42:00,
2013-10-28 10:52:00,52.0,51.0,-100.00,NNW,345,3.0,5.0,97,0.00,,,0.00,46.000000,,2013-10-28 14:52:00,
2013-10-28 11:02:00,52.0,51.0,-100.00,NNW,345,3.0,5.0,97,0.00,,,0.00,46.000000,,2013-10-28 15:02:00,
2013-10-28 11:43:00,53.0,52.0,-100.00,NNW,341,3.0,6.0,96,0.00,,,0.00,66.000000,,2013-10-28 15:43:00,
2013-10-28 11:53:00,53.0,52.0,-100.00,NNW,341,3.0,6.0,96,0.00,,,0.00,66.000000,,2013-10-28 15:53:00,
2013-10-28 12:03:00,53.0,52.0,-100.00,NNW,341,3.0,6.0,96,0.00,,,0.00,66.000000,,2013-10-28 16:03:00,
2013-10-28 12:43:00,55.0,53.0,-100.00,NNW,347,3.0,5.0,92,0.00,,,0.00,133.000000,,2013-10-28 16:43:00,
2013-10-28 12:53:00,55.0,53.0,-100.00,NNW,347,3.0,5.0,92,0.00,,,0.00,133.000000,,2013-10-28 16:53:00,
2013-10-28 13:03:00,55.0,53.0,-100.00,NNW,347,3.0,5.0,92,0.00,,,0.00,133.000000,,2013-10-28 17:03:00,
2013-10-28 13:42:00,56.0,53.0,-100.00,NNW,347,1.0,3.0,89,0.00,,,0.00,129.000000,,2013-10-28 17:42:00,
2013-10-28 13:52:00,56.0,53.0,-100.00,NNW,347,1.0,3.0,89,0.00,,,0.00,129.000000,,2013-10-28 17:52:00,
2013-10-28 14:02:00,56.0,53.0,-100.00,NNW,347,1.0,3.0,89,0.00,,,0.00,129.000000,,2013-10-28 18:02:00,
2013-10-28 14:42:00,57.0,53.0,-100.00,NNW,346,3.0,5.0,86,0.00,,,0.00,135.000000,,2013-10-28 18:42:00,
2013-10-28 14:52:00,57.0,53.0,-100.00,NNW,346,3.0,5.0,86,0.00,,,0.00,135.000000,,2013-10-28 18:52:00,
2013-10-28 15:02:00,57.0,53.0,-100.00,NNW,346,3.0,5.0,86,0.00,,,0.00,135.000000,,2013-10-28 19:02:00,
2013-10-28 15:42:00,56.0,54.0,-100.00,NNW,345,2.0,8.0,93,0.00,,,0.00,81.000000,,2013-10-28 19:42:00,
2013-10-28 15:53:00,56.0,54.0,-100.00,NNW,345,2.0,8.0,93,0.00,,,0.00,81.000000,,2013-10-28 19:53:00,
2013-10-28 16:02:00,56.0,54.0,-100.00,NNW,345,2.0,8.0,93,0.00,,,0.00,81.000000,,2013-10-28 20:02:00,
2013-10-28 16:42:00,56.0,54.0,-100.00,North,349,3.0,6.0,92,0.00,,,0.00,82.000000,,2013-10-28 20:42:00,
2013-10-28 16:52:00,56.0,54.0,-100.00,North,349,3.0,6.0,92,0.00,,,0.00,82.000000,,2013-10-28 20:52:00,
2013-10-28 17:02:00,56.0,54.0,-100.00,North,349,3.0,6.0,92,0.00,,,0.00,82.000000,,2013-10-28 21:02:00,
2013-10-28 17:43:00,57.0,54.0,-100.00,NNW,342,4.0,10.0,90,0.00,,,0.00,125.000000,,2013-10-28 21:43:00,
2013-10-28 17:54:00,57.0,54.0,-100.00,NNW,342,4.0,10.0,90,0.00,,,0.00,125.000000,,2013-10-28 21:54:00,
2013-10-28 18:04:00,57.0,54.0,-100.00,NNW,342,4.0,10.0,90,0.00,,,0.00,125.000000,,2013-10-28 22:04:00,
2013-10-28 18:43:00,57.0,54.0,-100.00,NNW,345,3.0,9.0,89,0.00,,,0.00,85.000000,,2013-10-28 22:43:00,
2013-10-28 18:53:00,57.0,54.0,-100.00,NNW,345,3.0,9.0,89,0.00,,,0.00,85.000000,,2013-10-28 22:53:00,
2013-10-28 19:03:00,57.0,54.0,-100.00,NNW,345,3.0,9.0,89,0.00,,,0.00,85.000000,,2013-10-28 23:03:00,
2013-10-28 19:43:00,56.0,54.0,-100.00,NNW,348,3.0,6.0,92,0.00,,,0.00,6.000000,,2013-10-28 23:43:00,
2013-10-28 19:53:00,56.0,54.0,-100.00,NNW,348,3.0,6.0,92,0.00,,,0.00,6.000000,,2013-10-28 23:53:00,
2013-10-28 20:01:00,56.0,54.0,-100.00,NNW,348,3.0,6.0,92,0.00,,,0.00,6.000000,,2013-10-29 00:01:00,
2013-10-28 20:42:00,55.0,54.0,-100.00,NNW,343,3.0,6.0,96,0.00,,,0.00,0.000000,,2013-10-29 00:42:00,
2013-10-28 20:52:00,55.0,54.0,-100.00,NNW,343,3.0,6.0,96,0.00,,,0.00,0.000000,,2013-10-29 00:52:00,
2013-10-28 21:01:00,55.0,54.0,-100.00,NNW,343,3.0,6.0,96,0.00,,,0.00,0.000000,,2013-10-29 01:01:00,
2013-10-28 22:44:00,55.0,54.0,-100.00,NNW,342,3.0,4.0,95,-99.99,,,0.00,0.000000,,2013-10-29 02:44:00,
2013-10-28 22:54:00,55.0,54.0,-100.00,NNW,342,3.0,4.0,95,-99.99,,,0.00,0.000000,,2013-10-29 02:54:00,
2013-10-28 23:03:00,55.0,54.0,-100.00,NNW,342,3.0,4.0,95,-99.99,,,0.00,0.000000,,2013-10-29 03:03:00,
2013-10-28 23:40:00,-999.0,-99.9,-100.00,NNW,341,0.0,4.0,96,0.00,,,0.00,0.000000,,2013-10-29 03:40:00,
2013-10-28 23:48:00,55.0,54.0,-100.00,NNW,341,0.0,4.0,96,0.00,,,0.00,0.000000,,2013-10-29 03:48:00,
2013-10-28 23:56:00,55.0,54.0,-100.00,NNW,341,0.0,4.0,96,0.00,,,0.00,0.000000,,2013-10-29 03:56:00,